Time,TemperatureF,DewpointF,PressureIn,WindDirection,WindDirectionDegrees,WindSpeedMPH,WindSpeedGustMPH,Humidity,HourlyPrecipIn,Conditions,Clouds,dailyrainin,SolarRadiationWatts/m^2,SoftwareType,DateUTC
2013-03-03 00:02:00,13.0,-24.0,-100.00,SSE,158,4.0,6.0,17,0.00,,,0.00,0.000000,,2013-03-03 06:02:00,
2013-03-03 00:22:00,10.0,-15.0,-100.00,SSE,168,4.0,6.0,30,0.00,,,0.00,0.000000,,2013-03-03 06:22:00,
2013-03-03 00:32:00,10.0,-15.0,-100.00,SSE,168,4.0,6.0,30,0.00,,,0.00,0.000000,,2013-03-03 06:32:00,
2013-03-03 00:42:00,10.0,-15.0,-100.00,SSE,168,4.0,6.0,30,0.00,,,0.00,0.000000,,2013-03-03 06:42:00,
2013-03-03 00:52:00,10.0,-15.0,-100.00,SSE,168,4.0,6.0,30,0.00,,,0.00,0.000000,,2013-03-03 06:52:00,
2013-03-03 01:01:00,10.0,-15.0,-100.00,SSE,168,4.0,6.0,30,0.00,,,0.00,0.000000,,2013-03-03 07:01:00,
2013-03-03 01:32:00,9.0,-9.0,-100.00,South,180,4.0,6.0,42,0.00,,,0.00,0.000000,,2013-03-03 07:32:00,
2013-03-03 01:42:00,9.0,-9.0,-100.00,South,180,4.0,6.0,42,0.00,,,0.00,0.000000,,2013-03-03 07:42:00,
2013-03-03 01:52:00,9.0,-9.0,-100.00,South,180,4.0,6.0,42,0.00,,,0.00,0.000000,,2013-03-03 07:52:00,
2013-03-03 02:01:00,9.0,-9.0,-100.00,South,180,4.0,6.0,42,0.00,,,0.00,0.000000,,2013-03-03 08:01:00,
2013-03-03 02:32:00,7.0,-6.0,-100.00,SE,128,3.0,5.0,53,0.00,,,0.00,0.000000,,2013-03-03 08:32:00,
2013-03-03 02:42:00,7.0,-6.0,-100.00,SE,128,3.0,5.0,53,0.00,,,0.00,0.000000,,2013-03-03 08:42:00,
2013-03-03 02:54:00,7.0,-6.0,-100.00,SE,128,3.0,5.0,53,0.00,,,0.00,0.000000,,2013-03-03 08:54:00,
2013-03-03 03:01:00,7.0,-6.0,-100.00,SE,128,3.0,5.0,53,0.00,,,0.00,0.000000,,2013-03-03 09:01:00,
2013-03-03 03:32:00,8.0,-6.0,-100.00,SSE,164,4.0,6.0,53,0.00,,,0.00,0.000000,,2013-03-03 09:32:00,
2013-03-03 03:42:00,8.0,-6.0,-100.00,SSE,164,4.0,6.0,53,0.00,,,0.00,0.000000,,2013-03-03 09:42:00,
2013-03-03 03:52:00,8.0,-6.0,-100.00,SSE,164,4.0,6.0,53,0.00,,,0.00,0.000000,,2013-03-03 09:52:00,
2013-03-03 04:01:00,8.0,-6.0,-100.00,SSE,164,4.0,6.0,53,0.00,,,0.00,0.000000,,2013-03-03 10:01:00,
2013-03-03 04:32:00,5.0,-8.0,-100.00,ESE,102,3.0,4.0,55,0.00,,,0.00,0.000000,,2013-03-03 10:32:00,
2013-03-03 04:42:00,5.0,-8.0,-100.00,ESE,102,3.0,4.0,55,0.00,,,0.00,0.000000,,2013-03-03 10:42:00,
2013-03-03 04:52:00,5.0,-8.0,-100.00,ESE,102,3.0,4.0,55,0.00,,,0.00,0.000000,,2013-03-03 10:52:00,
2013-03-03 05:01:00,5.0,-8.0,-100.00,ESE,102,3.0,4.0,55,0.00,,,0.00,0.000000,,2013-03-03 11:01:00,
2013-03-03 05:32:00,4.0,-7.0,-100.00,East,91,4.0,5.0,60,0.00,,,0.00,0.000000,,2013-03-03 11:32:00,
2013-03-03 05:42:00,4.0,-7.0,-100.00,East,91,4.0,5.0,60,0.00,,,0.00,0.000000,,2013-03-03 11:42:00,
2013-03-03 05:52:00,4.0,-7.0,-100.00,East,91,4.0,5.0,60,0.00,,,0.00,0.000000,,2013-03-03 11:52:00,
2013-03-03 06:01:00,4.0,-7.0,-100.00,East,91,4.0,5.0,60,0.00,,,0.00,0.000000,,2013-03-03 12:01:00,
2013-03-03 06:32:00,3.0,-5.0,-100.00,ESE,104,3.0,5.0,67,0.00,,,0.00,0.000000,,2013-03-03 12:32:00,
2013-03-03 06:43:00,3.0,-5.0,-100.00,ESE,104,3.0,5.0,67,0.00,,,0.00,0.000000,,2013-03-03 12:43:00,
2013-03-03 06:53:00,3.0,-5.0,-100.00,ESE,104,3.0,5.0,67,0.00,,,0.00,0.000000,,2013-03-03 12:53:00,
2013-03-03 07:01:00,3.0,-5.0,-100.00,ESE,104,3.0,5.0,67,0.00,,,0.00,0.000000,,2013-03-03 13:01:00,
2013-03-03 07:32:00,1.0,-6.0,-100.00,East,90,3.0,5.0,73,0.00,,,0.00,4.000000,,2013-03-03 13:32:00,
2013-03-03 07:42:00,1.0,-6.0,-100.00,East,90,3.0,5.0,73,0.00,,,0.00,4.000000,,2013-03-03 13:42:00,
2013-03-03 07:52:00,1.0,-6.0,-100.00,East,90,3.0,5.0,73,0.00,,,0.00,4.000000,,2013-03-03 13:52:00,
2013-03-03 08:02:00,1.0,-6.0,-100.00,East,90,3.0,5.0,73,0.00,,,0.00,4.000000,,2013-03-03 14:02:00,
2013-03-03 08:32:00,7.0,-1.0,-100.00,SE,124,4.0,8.0,70,0.00,,,0.00,62.000000,,2013-03-03 14:32:00,
2013-03-03 08:42:00,7.0,-1.0,-100.00,SE,124,4.0,8.0,70,0.00,,,0.00,62.000000,,2013-03-03 14:42:00,
2013-03-03 08:52:00,7.0,-1.0,-100.00,SE,124,4.0,8.0,70,0.00,,,0.00,62.000000,,2013-03-03 14:52:00,
2013-03-03 09:01:00,7.0,-1.0,-100.00,SE,124,4.0,8.0,70,0.00,,,0.00,62.000000,,2013-03-03 15:01:00,
2013-03-03 09:32:00,19.0,3.0,-100.00,SE,128,5.0,9.0,50,0.00,,,0.00,310.000000,,2013-03-03 15:32:00,
2013-03-03 09:42:00,19.0,3.0,-100.00,SE,128,5.0,9.0,50,0.00,,,0.00,310.000000,,2013-03-03 15:42:00,
2013-03-03 09:52:00,19.0,3.0,-100.00,SE,128,5.0,9.0,50,0.00,,,0.00,310.000000,,2013-03-03 15:52:00,
2013-03-03 10:01:00,19.0,3.0,-100.00,SE,128,5.0,9.0,50,0.00,,,0.00,310.000000,,2013-03-03 16:01:00,
2013-03-03 10:32:00,28.0,3.0,-100.00,SE,126,4.0,7.0,33,0.00,,,0.00,492.000000,,2013-03-03 16:32:00,
2013-03-03 10:42:00,28.0,3.0,-100.00,SE,126,4.0,7.0,33,0.00,,,0.00,492.000000,,2013-03-03 16:42:00,
2013-03-03 10:52:00,28.0,3.0,-100.00,SE,126,4.0,7.0,33,0.00,,,0.00,492.000000,,2013-03-03 16:52:00,
2013-03-03 11:01:00,28.0,3.0,-100.00,SE,126,4.0,7.0,33,0.00,,,0.00,492.000000,,2013-03-03 17:01:00,
2013-03-03 11:32:00,31.0,-2.0,-100.00,SE,140,5.0,11.0,23,0.00,,,0.00,626.000000,,2013-03-03 17:32:00,
2013-03-03 11:42:00,31.0,-2.0,-100.00,SE,140,5.0,11.0,23,0.00,,,0.00,626.000000,,2013-03-03 17:42:00,
2013-03-03 11:52:00,31.0,-2.0,-100.00,SE,140,5.0,11.0,23,0.00,,,0.00,626.000000,,2013-03-03 17:52:00,
2013-03-03 12:01:00,31.0,-2.0,-100.00,SE,140,5.0,11.0,23,0.00,,,0.00,626.000000,,2013-03-03 18:01:00,
2013-03-03 12:22:00,33.0,-5.0,-100.00,SSE,152,6.0,11.0,19,0.00,,,0.00,705.000000,,2013-03-03 18:22:00,
2013-03-03 12:32:00,33.0,-5.0,-100.00,SSE,152,6.0,11.0,19,0.00,,,0.00,705.000000,,2013-03-03 18:32:00,
2013-03-03 12:42:00,33.0,-5.0,-100.00,SSE,152,6.0,11.0,19,0.00,,,0.00,705.000000,,2013-03-03 18:42:00,
2013-03-03 12:52:00,33.0,-5.0,-100.00,SSE,152,6.0,11.0,19,0.00,,,0.00,705.000000,,2013-03-03 18:52:00,
2013-03-03 13:01:00,33.0,-5.0,-100.00,SSE,152,6.0,11.0,19,0.00,,,0.00,705.000000,,2013-03-03 19:01:00,
2013-03-03 13:22:00,34.0,-5.0,-100.00,SE,124,5.0,11.0,18,0.00,,,0.00,703.000000,,2013-03-03 19:22:00,
2013-03-03 13:32:00,34.0,-5.0,-100.00,SE,124,5.0,11.0,18,0.00,,,0.00,703.000000,,2013-03-03 19:32:00,
2013-03-03 13:42:00,34.0,-5.0,-100.00,SE,124,5.0,11.0,18,0.00,,,0.00,703.000000,,2013-03-03 19:42:00,
2013-03-03 13:52:00,34.0,-5.0,-100.00,SE,124,5.0,11.0,18,0.00,,,0.00,703.000000,,2013-03-03 19:52:00,
2013-03-03 14:01:00,34.0,-5.0,-100.00,SE,124,5.0,11.0,18,0.00,,,0.00,703.000000,,2013-03-03 20:01:00,
2013-03-03 14:32:00,32.0,-3.0,-100.00,ESE,123,5.0,11.0,21,0.00,,,0.00,293.000000,,2013-03-03 20:32:00,
2013-03-03 14:42:00,32.0,-3.0,-100.00,ESE,123,5.0,11.0,21,0.00,,,0.00,293.000000,,2013-03-03 20:42:00,
2013-03-03 14:53:00,32.0,-3.0,-100.00,ESE,123,5.0,11.0,21,0.00,,,0.00,293.000000,,2013-03-03 20:53:00,
2013-03-03 15:02:00,32.0,-3.0,-100.00,ESE,123,5.0,11.0,21,0.00,,,0.00,293.000000,,2013-03-03 21:02:00,
2013-03-03 15:32:00,37.0,2.0,-100.00,SE,141,5.0,12.0,22,0.00,,,0.00,256.000000,,2013-03-03 21:32:00,
2013-03-03 15:42:00,37.0,2.0,-100.00,SE,141,5.0,12.0,22,0.00,,,0.00,256.000000,,2013-03-03 21:42:00,
2013-03-03 15:52:00,37.0,2.0,-100.00,SE,141,5.0,12.0,22,0.00,,,0.00,256.000000,,2013-03-03 21:52:00,
2013-03-03 16:01:00,37.0,2.0,-100.00,SE,141,5.0,12.0,22,0.00,,,0.00,256.000000,,2013-03-03 22:01:00,
2013-03-03 16:32:00,36.0,1.0,-100.00,SE,126,5.0,11.0,22,0.00,,,0.00,382.000000,,2013-03-03 22:32:00,
2013-03-03 16:42:00,36.0,1.0,-100.00,SE,126,5.0,11.0,22,0.00,,,0.00,382.000000,,2013-03-03 22:42:00,
2013-03-03 16:52:00,36.0,1.0,-100.00,SE,126,5.0,11.0,22,0.00,,,0.00,382.000000,,2013-03-03 22:52:00,
2013-03-03 17:01:00,36.0,1.0,-100.00,SE,126,5.0,11.0,22,0.00,,,0.00,382.000000,,2013-03-03 23:01:00,
2013-03-03 17:32:00,31.0,-1.0,-100.00,East,100,5.0,11.0,25,0.00,,,0.00,201.000000,,2013-03-03 23:32:00,
2013-03-03 17:42:00,31.0,-1.0,-100.00,East,100,5.0,11.0,25,0.00,,,0.00,201.000000,,2013-03-03 23:42:00,
2013-03-03 17:52:00,31.0,-1.0,-100.00,East,100,5.0,11.0,25,0.00,,,0.00,201.000000,,2013-03-03 23:52:00,
2013-03-03 18:01:00,31.0,-1.0,-100.00,East,100,5.0,11.0,25,0.00,,,0.00,201.000000,,2013-03-04 00:01:00,
2013-03-03 18:32:00,28.0,1.0,-100.00,East,100,4.0,10.0,30,0.00,,,0.00,30.000000,,2013-03-04 00:32:00,
2013-03-03 18:42:00,28.0,1.0,-100.00,East,100,4.0,10.0,30,0.00,,,0.00,30.000000,,2013-03-04 00:42:00,
2013-03-03 18:52:00,28.0,1.0,-100.00,East,100,4.0,10.0,30,0.00,,,0.00,30.000000,,2013-03-04 00:52:00,
2013-03-03 19:01:00,28.0,1.0,-100.00,East,100,4.0,10.0,30,0.00,,,0.00,30.000000,,2013-03-04 01:01:00,
2013-03-03 19:32:00,26.0,2.0,-100.00,ESE,115,5.0,10.0,35,0.00,,,0.00,0.000000,,2013-03-04 01:32:00,
2013-03-03 19:42:00,26.0,2.0,-100.00,ESE,115,5.0,10.0,35,0.00,,,0.00,0.000000,,2013-03-04 01:42:00,
2013-03-03 19:52:00,26.0,2.0,-100.00,ESE,115,5.0,10.0,35,0.00,,,0.00,0.000000,,2013-03-04 01:52:00,
2013-03-03 20:01:00,26.0,2.0,-100.00,ESE,115,5.0,10.0,35,0.00,,,0.00,0.000000,,2013-03-04 02:01:00,
2013-03-03 20:32:00,25.0,5.0,-100.00,SSE,149,5.0,11.0,41,0.00,,,0.00,0.000000,,2013-03-04 02:32:00,
2013-03-03 20:42:00,25.0,5.0,-100.00,SSE,149,5.0,11.0,41,0.00,,,0.00,0.000000,,2013-03-04 02:42:00,
2013-03-03 20:52:00,25.0,5.0,-100.00,SSE,149,5.0,11.0,41,0.00,,,0.00,0.000000,,2013-03-04 02:52:00,
2013-03-03 21:01:00,25.0,5.0,-100.00,SSE,149,5.0,11.0,41,0.00,,,0.00,0.000000,,2013-03-04 03:01:00,
2013-03-03 21:22:00,23.0,-5.0,-100.00,SSE,148,6.0,10.0,28,0.00,,,0.00,0.000000,,2013-03-04 03:22:00,
2013-03-03 21:32:00,23.0,-5.0,-100.00,SSE,148,6.0,10.0,28,0.00,,,0.00,0.000000,,2013-03-04 03:32:00,
2013-03-03 21:42:00,23.0,-5.0,-100.00,SSE,148,6.0,10.0,28,0.00,,,0.00,0.000000,,2013-03-04 03:42:00,
2013-03-03 21:52:00,23.0,-5.0,-100.00,SSE,148,6.0,10.0,28,0.00,,,0.00,0.000000,,2013-03-04 03:52:00,
2013-03-03 22:01:00,23.0,-5.0,-100.00,SSE,148,6.0,10.0,28,0.00,,,0.00,0.000000,,2013-03-04 04:01:00,
2013-03-03 22:32:00,20.0,-5.0,-100.00,SE,128,4.0,9.0,32,0.00,,,0.00,0.000000,,2013-03-04 04:32:00,
2013-03-03 22:42:00,20.0,-5.0,-100.00,SE,128,4.0,9.0,32,0.00,,,0.00,0.000000,,2013-03-04 04:42:00,
2013-03-03 22:52:00,20.0,-5.0,-100.00,SE,128,4.0,9.0,32,0.00,,,0.00,0.000000,,2013-03-04 04:52:00,
2013-03-03 23:01:00,20.0,-5.0,-100.00,SE,128,4.0,9.0,32,0.00,,,0.00,0.000000,,2013-03-04 05:01:00,
2013-03-03 23:22:00,17.0,-6.0,-100.00,ESE,122,6.0,11.0,34,0.00,,,0.00,0.000000,,2013-03-04 05:22:00,
2013-03-03 23:32:00,17.0,-6.0,-100.00,ESE,122,6.0,11.0,34,0.00,,,0.00,0.000000,,2013-03-04 05:32:00,
2013-03-03 23:43:00,17.0,-6.0,-100.00,ESE,122,6.0,11.0,34,0.00,,,0.00,0.000000,,2013-03-04 05:43:00,
2013-03-03 23:52:00,17.0,-6.0,-100.00,ESE,122,6.0,11.0,34,0.00,,,0.00,0.000000,,2013-03-04 05:52:00,